ДАННЫЕ О ПОГОДЕ

ВЧЕРА
Time Темп. Т росы. Влаж. Давл.
00:03 28.3 16.6 49 1014.5
00:24 28.1 16.4 49 1014.8
00:33 28 16.3 49 1014.8
00:43 27.8 16.1 49 1014.8
00:53 27.6 15.9 49 1014.8
01:04 27.3 15.7 49 1014.8
01:13 27.1 15.5 49 1014.7
01:23 26.8 14.9 48 1014.6
01:34 26.5 14.6 48 1014.6
01:44 26.2 14.3 48 1014.6
01:53 26 14.1 48 1014.6
02:04 25.7 13.9 48 1014.6
02:14 25.5 13.7 48 1014.5
02:24 25.3 13.5 48 1014.4
02:34 25.1 13.3 48 1014.3
02:45 24.8 13.1 48 1014.3
02:54 24.6 12.9 48 1014.3
03:04 24.4 12.7 48 1014.3
03:14 24.2 12.5 48 1014.3
03:25 24 12.3 48 1014.3
03:35 23.9 12.2 48 1014.4
03:44 23.7 12.1 48 1014.4
03:55 23.6 12 48 1014.4
04:05 23.4 11.8 48 1014.5
04:15 23.3 11.7 48 1014.7
04:25 23.1 11.5 48 1014.7
04:35 23 11.4 48 1014.6
04:45 22.9 11.3 48 1014.6
04:55 22.7 11.1 48 1014.6
05:06 22.6 11 48 1014.7
05:16 22.5 11 48 1014.7
05:25 22.4 10.9 48 1014.8
05:35 22.3 10.8 48 1014.8
05:46 22.1 10.9 49 1014.7
05:56 22 10.8 49 1014.8
06:06 21.9 10.7 49 1014.7
06:16 21.9 10.7 49 1014.8
06:26 21.9 10.7 49 1014.8
06:36 21.9 10.7 49 1014.8
06:46 21.9 10.7 49 1014.8
06:57 22 10.8 49 1014.8
07:06 22.1 10.9 49 1014.8
07:16 22.2 11 49 1014.9
07:27 22.3 11.1 49 1014.9
07:37 22.5 11.6 50 1014.9
07:46 22.6 11.7 50 1015
07:56 22.9 11.9 50 1014.8
08:07 23.1 12.1 50 1014.8
08:17 23.4 12.4 50 1014.9
08:27 23.6 12.6 50 1014.9
08:37 23.8 13.1 51 1014.8
08:47 24 13.2 51 1014.8
08:57 24.3 13.5 51 1014.8
09:07 24.6 13.8 51 1014.9
09:18 24.9 14.1 51 1014.9
09:27 25.3 14.7 52 1014.9
09:37 25.7 15.1 52 1015
09:47 26.2 15.6 52 1014.9
09:58 26.5 15.9 52 1014.8
10:08 26.8 16.1 52 1014.8
10:17 27.1 16.4 52 1014.8
10:28 27.5 16.8 52 1014.7
10:38 28.1 17.6 53 1014.7
10:48 28.7 18.2 53 1014.6
10:58 29.4 18.8 53 1014.5
11:08 30 19.4 53 1014.5
11:18 30.6 19.9 53 1014.4
11:28 31.1 20.4 53 1014.3
11:39 31.4 20.7 53 1014.2
11:49 31.8 21 53 1014.1
11:58 32 21.2 53 1014.1
12:09 32.3 21.5 53 1014.1
12:19 32.6 21.8 53 1014.1
12:29 32.8 22 53 1014.1
12:49 33.3 22.4 53 1013.9
12:59 33.6 22.7 53 1013.9
13:09 33.7 22.8 53 1013.8
13:30 34.1 23.2 53 1013.7
13:39 34.3 23.3 53 1013.6
13:49 34.4 23.4 53 1013.6
14:10 34.7 23.7 53 1013.3
14:20 35 24 53 1013.3
14:40 35.3 24.3 53 1013.1
14:50 35.5 24.4 53 1013
15:00 35.6 24.5 53 1012.8
15:20 36 24.6 52 1012.8
15:30 36.2 24.8 52 1012.8
15:40 36 24.6 52 1012.8
15:51 35.6 24.2 52 1012.7
16:00 35.4 24 52 1012.9
16:10 35.2 23.9 52 1013.1
16:21 34.9 23.3 51 1013.1
16:31 34.6 23 51 1013.1
16:41 34.6 23 51 1013
16:50 34.8 23.2 51 1013.1
17:01 35.1 23.4 51 1013.2
17:11 35.1 23.4 51 1013.2
17:21 34.8 23.2 51 1013.6
17:32 34 22.4 51 1013.6
17:41 33.4 21.6 50 1013.6
17:51 33 21.2 50 1013.4
18:01 32.9 21.1 50 1013.1
18:12 33.2 21.4 50 1013.1
18:22 33 21.2 50 1013.1
18:31 32.6 20.8 50 1013
18:42 32.2 20.5 50 1013
18:52 31.9 20.2 50 1012.9
19:02 31.8 20.1 50 1012.7
19:12 31.5 19.8 50 1012.8
19:22 31.1 19.1 49 1012.9
19:29 30.9 18.9 49 1013
19:39 30.7 18.8 49 1013.1
19:49 30.5 18.6 49 1013.4
19:59 30.3 18.4 49 1013.4
20:09 30 18.1 49 1013.6
20:19 29.8 17.9 49 1013.6
20:29 29.6 17.8 49 1013.5
20:39 29.4 17.6 49 1013.5
20:50 29.2 17.4 49 1013.4
20:59 29 17.2 49 1013.3
21:09 28.7 16.9 49 1013.4
21:20 28.2 16.5 49 1013.5
21:30 27.9 16.2 49 1013.6
21:40 27.5 15.8 49 1013.5
21:50 27.2 15.6 49 1013.5
22:00 26.8 15.2 49 1013.6
22:10 26.4 14.8 49 1013.8
22:20 26.1 14.6 49 1013.9
22:31 25.8 14.3 49 1013.7
22:40 25.7 14.2 49 1013.6
22:50 25.5 14 49 1013.4
23:00 25.2 14 50 1013.1
23:11 24.9 13.8 50 1012.8
23:21 24.7 13.9 51 1012.6
23:30 24.5 13.7 51 1012.5
23:41 24.3 13.8 52 1012.3
23:51 24.1 13.9 53 1012.2

СТАТИСТИКА ЗА ДЕНЬ

2020-08-09
TЕМПЕРАТУРА
СРЕДНЯЯ
28.1
МАКСИМАЛЬНАЯ
36.2
15:30
МИНИМАЛЬНАЯ
21.9
06:06
ДАВЛЕНИЕ
СРЕДНЯЯ
1014.0
МАКСИМАЛЬНАЯ
1015.0
07:46
МИНИМАЛЬНАЯ
1012.2
23:51
ТОЧКА РОСЫ
СРЕДНЯЯ
16.8
МАКСИМАЛЬНАЯ
24.8
15:30
МИНИМАЛЬНАЯ
10.7
06:06
ВЛАЖНОСТЬ
СРЕДНЯЯ
50
МАКСИМАЛЬНАЯ
53
10:38
МИНИМАЛЬНАЯ
48
01:23
TЕМПЕРАТУРА (°C)
МИНИМАЛЬНАЯ
21.9
МАКСИМАЛЬНАЯ
36.2
СРЕДНЯЯ
28.1
ДАВЛЕНИЕ (hpa)
МИНИМАЛЬНАЯ
1012.2
МАКСИМАЛЬНАЯ
1015.0
СРЕДНЯЯ
1014.0
УСТРОЙСТВО